sensor_id;sensor_type;location;lat;lon;timestamp;temperature;humidity
75217;HTU21D;63800;51.972;5.682;2023-04-06T00:00:32;5.07;63.54
75217;HTU21D;63800;51.972;5.682;2023-04-06T00:02:58;4.98;64.54
75217;HTU21D;63800;51.972;5.682;2023-04-06T00:05:23;4.96;63.49
75217;HTU21D;63800;51.972;5.682;2023-04-06T00:07:49;4.95;64.35
75217;HTU21D;63800;51.972;5.682;2023-04-06T00:10:16;5.04;63.14
75217;HTU21D;63800;51.972;5.682;2023-04-06T00:12:41;5.09;64.21
75217;HTU21D;63800;51.972;5.682;2023-04-06T00:15:08;5.03;63.40
75217;HTU21D;63800;51.972;5.682;2023-04-06T00:17:33;5.04;64.56
75217;HTU21D;63800;51.972;5.682;2023-04-06T00:19:59;5.00;64.35
75217;HTU21D;63800;51.972;5.682;2023-04-06T00:22:25;4.87;64.42
75217;HTU21D;63800;51.972;5.682;2023-04-06T00:24:50;4.87;65.24
75217;HTU21D;63800;51.972;5.682;2023-04-06T00:27:16;4.83;65.15
75217;HTU21D;63800;51.972;5.682;2023-04-06T00:29:43;4.79;64.72
75217;HTU21D;63800;51.972;5.682;2023-04-06T00:32:08;4.80;65.36
75217;HTU21D;63800;51.972;5.682;2023-04-06T00:34:34;4.89;64.40
75217;HTU21D;63800;51.972;5.682;2023-04-06T00:36:59;4.83;64.39
75217;HTU21D;63800;51.972;5.682;2023-04-06T00:39:25;4.76;63.60
75217;HTU21D;63800;51.972;5.682;2023-04-06T00:41:51;4.66;63.56
75217;HTU21D;63800;51.972;5.682;2023-04-06T00:44:18;4.51;65.98
75217;HTU21D;63800;51.972;5.682;2023-04-06T00:46:44;4.59;64.55
75217;HTU21D;63800;51.972;5.682;2023-04-06T00:49:10;4.53;65.01
75217;HTU21D;63800;51.972;5.682;2023-04-06T00:51:35;4.50;65.94
75217;HTU21D;63800;51.972;5.682;2023-04-06T00:54:01;4.50;65.42
75217;HTU21D;63800;51.972;5.682;2023-04-06T00:56:26;4.50;64.66
75217;HTU21D;63800;51.972;5.682;2023-04-06T00:58:52;4.52;65.46
75217;HTU21D;63800;51.972;5.682;2023-04-06T01:01:17;4.41;66.99
75217;HTU21D;63800;51.972;5.682;2023-04-06T01:03:43;4.36;66.53
75217;HTU21D;63800;51.972;5.682;2023-04-06T01:06:09;4.35;64.95
75217;HTU21D;63800;51.972;5.682;2023-04-06T01:08:36;4.31;65.68
75217;HTU21D;63800;51.972;5.682;2023-04-06T01:11:01;4.37;66.20
75217;HTU21D;63800;51.972;5.682;2023-04-06T01:13:27;4.35;66.14
75217;HTU21D;63800;51.972;5.682;2023-04-06T01:15:53;4.31;66.59
75217;HTU21D;63800;51.972;5.682;2023-04-06T01:18:18;4.23;66.67
75217;HTU21D;63800;51.972;5.682;2023-04-06T01:20:44;4.26;65.77
75217;HTU21D;63800;51.972;5.682;2023-04-06T01:23:09;4.19;66.78
75217;HTU21D;63800;51.972;5.682;2023-04-06T01:25:34;4.16;65.95
75217;HTU21D;63800;51.972;5.682;2023-04-06T01:28:00;4.20;66.53
75217;HTU21D;63800;51.972;5.682;2023-04-06T01:30:26;4.23;66.14
75217;HTU21D;63800;51.972;5.682;2023-04-06T01:32:51;4.29;65.53
75217;HTU21D;63800;51.972;5.682;2023-04-06T01:35:18;4.27;65.91
75217;HTU21D;63800;51.972;5.682;2023-04-06T01:37:44;4.09;67.84
75217;HTU21D;63800;51.972;5.682;2023-04-06T01:40:10;4.07;66.45
75217;HTU21D;63800;51.972;5.682;2023-04-06T01:42:36;4.04;66.91
75217;HTU21D;63800;51.972;5.682;2023-04-06T01:45:02;4.05;67.14
75217;HTU21D;63800;51.972;5.682;2023-04-06T01:47:27;4.00;68.33
75217;HTU21D;63800;51.972;5.682;2023-04-06T01:49:53;4.00;67.32
75217;HTU21D;63800;51.972;5.682;2023-04-06T01:52:18;4.02;68.44
75217;HTU21D;63800;51.972;5.682;2023-04-06T01:54:44;4.05;67.65
75217;HTU21D;63800;51.972;5.682;2023-04-06T01:57:10;4.13;66.04
75217;HTU21D;63800;51.972;5.682;2023-04-06T01:59:36;4.20;66.60
75217;HTU21D;63800;51.972;5.682;2023-04-06T02:02:01;4.34;63.95
75217;HTU21D;63800;51.972;5.682;2023-04-06T02:04:27;4.47;65.99
75217;HTU21D;63800;51.972;5.682;2023-04-06T02:06:52;4.50;63.36
75217;HTU21D;63800;51.972;5.682;2023-04-06T02:09:18;4.49;64.76
75217;HTU21D;63800;51.972;5.682;2023-04-06T02:11:43;4.56;62.49
75217;HTU21D;63800;51.972;5.682;2023-04-06T02:14:08;4.65;61.10
75217;HTU21D;63800;51.972;5.682;2023-04-06T02:16:34;4.77;61.89
75217;HTU21D;63800;51.972;5.682;2023-04-06T02:18:59;4.80;61.63
75217;HTU21D;63800;51.972;5.682;2023-04-06T02:21:25;4.84;59.77
75217;HTU21D;63800;51.972;5.682;2023-04-06T02:23:50;5.02;62.54
75217;HTU21D;63800;51.972;5.682;2023-04-06T02:26:16;5.07;60.01
75217;HTU21D;63800;51.972;5.682;2023-04-06T02:28:42;5.05;60.30
75217;HTU21D;63800;51.972;5.682;2023-04-06T02:31:08;5.04;61.99
75217;HTU21D;63800;51.972;5.682;2023-04-06T02:33:33;5.13;62.44
75217;HTU21D;63800;51.972;5.682;2023-04-06T02:35:59;5.16;60.30
75217;HTU21D;63800;51.972;5.682;2023-04-06T02:38:24;5.19;59.88
75217;HTU21D;63800;51.972;5.682;2023-04-06T02:40:50;5.11;58.86
75217;HTU21D;63800;51.972;5.682;2023-04-06T02:43:15;5.23;61.07
75217;HTU21D;63800;51.972;5.682;2023-04-06T02:45:42;5.22;58.29
75217;HTU21D;63800;51.972;5.682;2023-04-06T02:48:07;5.28;59.61
75217;HTU21D;63800;51.972;5.682;2023-04-06T02:50:33;5.32;59.04
75217;HTU21D;63800;51.972;5.682;2023-04-06T02:52:58;5.32;60.51
75217;HTU21D;63800;51.972;5.682;2023-04-06T02:55:24;5.27;59.35
75217;HTU21D;63800;51.972;5.682;2023-04-06T02:57:49;5.39;58.76
75217;HTU21D;63800;51.972;5.682;2023-04-06T03:00:15;5.30;58.00
75217;HTU21D;63800;51.972;5.682;2023-04-06T03:02:40;5.30;57.77
75217;HTU21D;63800;51.972;5.682;2023-04-06T03:05:06;5.56;57.06
75217;HTU21D;63800;51.972;5.682;2023-04-06T03:07:31;5.40;58.11
75217;HTU21D;63800;51.972;5.682;2023-04-06T03:09:57;5.40;56.96
75217;HTU21D;63800;51.972;5.682;2023-04-06T03:12:22;5.61;56.29
75217;HTU21D;63800;51.972;5.682;2023-04-06T03:14:48;5.46;57.19
75217;HTU21D;63800;51.972;5.682;2023-04-06T03:17:13;5.65;56.67
75217;HTU21D;63800;51.972;5.682;2023-04-06T03:19:39;5.49;57.46
75217;HTU21D;63800;51.972;5.682;2023-04-06T03:22:05;5.54;56.12
75217;HTU21D;63800;51.972;5.682;2023-04-06T03:24:30;5.47;57.13
75217;HTU21D;63800;51.972;5.682;2023-04-06T03:26:56;5.42;57.55
75217;HTU21D;63800;51.972;5.682;2023-04-06T03:29:21;5.49;58.38
75217;HTU21D;63800;51.972;5.682;2023-04-06T03:31:47;5.40;56.49
75217;HTU21D;63800;51.972;5.682;2023-04-06T03:34:12;5.55;57.25
75217;HTU21D;63800;51.972;5.682;2023-04-06T03:36:38;5.37;59.36
75217;HTU21D;63800;51.972;5.682;2023-04-06T03:39:04;5.36;57.17
75217;HTU21D;63800;51.972;5.682;2023-04-06T03:41:29;5.40;58.48
75217;HTU21D;63800;51.972;5.682;2023-04-06T03:43:55;5.31;58.63
75217;HTU21D;63800;51.972;5.682;2023-04-06T03:46:20;5.19;61.21
75217;HTU21D;63800;51.972;5.682;2023-04-06T03:48:48;5.17;61.34
75217;HTU21D;63800;51.972;5.682;2023-04-06T03:51:13;5.31;59.92
75217;HTU21D;63800;51.972;5.682;2023-04-06T03:53:39;5.23;60.27
75217;HTU21D;63800;51.972;5.682;2023-04-06T03:56:05;5.24;59.74
75217;HTU21D;63800;51.972;5.682;2023-04-06T03:58:30;5.31;59.37
75217;HTU21D;63800;51.972;5.682;2023-04-06T04:00:56;5.21;60.49
75217;HTU21D;63800;51.972;5.682;2023-04-06T04:03:21;5.27;59.46
75217;HTU21D;63800;51.972;5.682;2023-04-06T04:05:49;5.30;60.47
75217;HTU21D;63800;51.972;5.682;2023-04-06T04:08:15;5.15;58.90
75217;HTU21D;63800;51.972;5.682;2023-04-06T04:10:40;5.36;59.16
75217;HTU21D;63800;51.972;5.682;2023-04-06T04:13:06;5.30;57.66
75217;HTU21D;63800;51.972;5.682;2023-04-06T04:15:31;5.38;58.21
75217;HTU21D;63800;51.972;5.682;2023-04-06T04:17:57;5.39;58.14
75217;HTU21D;63800;51.972;5.682;2023-04-06T04:20:22;5.49;58.38
75217;HTU21D;63800;51.972;5.682;2023-04-06T04:22:48;5.36;57.78
75217;HTU21D;63800;51.972;5.682;2023-04-06T04:25:13;5.52;57.48
75217;HTU21D;63800;51.972;5.682;2023-04-06T04:27:39;5.54;59.00
75217;HTU21D;63800;51.972;5.682;2023-04-06T04:30:06;5.28;58.64
75217;HTU21D;63800;51.972;5.682;2023-04-06T04:32:31;5.34;59.58
75217;HTU21D;63800;51.972;5.682;2023-04-06T04:34:57;5.28;59.97
75217;HTU21D;63800;51.972;5.682;2023-04-06T04:37:22;5.41;59.57
75217;HTU21D;63800;51.972;5.682;2023-04-06T04:39:48;5.25;60.03
75217;HTU21D;63800;51.972;5.682;2023-04-06T04:42:13;5.18;60.05
75217;HTU21D;63800;51.972;5.682;2023-04-06T04:44:39;5.18;61.12
75217;HTU21D;63800;51.972;5.682;2023-04-06T04:47:05;5.19;60.47
75217;HTU21D;63800;51.972;5.682;2023-04-06T04:49:31;5.11;62.53
75217;HTU21D;63800;51.972;5.682;2023-04-06T04:51:56;5.06;60.90
75217;HTU21D;63800;51.972;5.682;2023-04-06T04:54:22;5.16;61.72
75217;HTU21D;63800;51.972;5.682;2023-04-06T04:56:47;5.03;62.92
75217;HTU21D;63800;51.972;5.682;2023-04-06T04:59:13;5.11;61.50
75217;HTU21D;63800;51.972;5.682;2023-04-06T05:01:38;5.07;63.06
75217;HTU21D;63800;51.972;5.682;2023-04-06T05:04:04;5.19;61.94
75217;HTU21D;63800;51.972;5.682;2023-04-06T05:06:30;5.10;63.18
75217;HTU21D;63800;51.972;5.682;2023-04-06T05:08:56;4.96;62.47
75217;HTU21D;63800;51.972;5.682;2023-04-06T05:11:21;4.92;64.27
75217;HTU21D;63800;51.972;5.682;2023-04-06T05:13:47;4.84;64.50
75217;HTU21D;63800;51.972;5.682;2023-04-06T05:16:12;4.80;64.74
75217;HTU21D;63800;51.972;5.682;2023-04-06T05:18:38;4.81;63.97
75217;HTU21D;63800;51.972;5.682;2023-04-06T05:21:04;4.80;64.02
75217;HTU21D;63800;51.972;5.682;2023-04-06T05:23:29;4.86;62.71
75217;HTU21D;63800;51.972;5.682;2023-04-06T05:25:55;4.88;63.67
75217;HTU21D;63800;51.972;5.682;2023-04-06T05:28:21;5.09;62.31
75217;HTU21D;63800;51.972;5.682;2023-04-06T05:30:47;5.01;63.21
75217;HTU21D;63800;51.972;5.682;2023-04-06T05:33:12;5.12;63.31
75217;HTU21D;63800;51.972;5.682;2023-04-06T05:35:38;5.07;61.80
75217;HTU21D;63800;51.972;5.682;2023-04-06T05:38:07;5.26;61.73
75217;HTU21D;63800;51.972;5.682;2023-04-06T05:40:33;5.28;62.15
75217;HTU21D;63800;51.972;5.682;2023-04-06T05:42:58;5.23;62.34
75217;HTU21D;63800;51.972;5.682;2023-04-06T05:45:24;5.18;62.70
75217;HTU21D;63800;51.972;5.682;2023-04-06T05:47:49;5.21;62.32
75217;HTU21D;63800;51.972;5.682;2023-04-06T05:50:15;5.35;62.81
75217;HTU21D;63800;51.972;5.682;2023-04-06T05:52:41;5.48;61.82
75217;HTU21D;63800;51.972;5.682;2023-04-06T05:55:09;5.72;60.78
75217;HTU21D;63800;51.972;5.682;2023-04-06T05:57:34;5.56;60.48
75217;HTU21D;63800;51.972;5.682;2023-04-06T06:00:00;5.65;61.55
75217;HTU21D;63800;51.972;5.682;2023-04-06T06:02:26;5.91;61.59
75217;HTU21D;63800;51.972;5.682;2023-04-06T06:04:51;5.92;60.33
75217;HTU21D;63800;51.972;5.682;2023-04-06T06:07:17;5.94;60.80
75217;HTU21D;63800;51.972;5.682;2023-04-06T06:09:42;5.91;59.96
75217;HTU21D;63800;51.972;5.682;2023-04-06T06:12:08;6.01;60.28
75217;HTU21D;63800;51.972;5.682;2023-04-06T06:14:34;5.93;60.49
75217;HTU21D;63800;51.972;5.682;2023-04-06T06:16:59;5.82;61.39
75217;HTU21D;63800;51.972;5.682;2023-04-06T06:19:25;5.85;60.62
75217;HTU21D;63800;51.972;5.682;2023-04-06T06:21:50;5.97;60.57
75217;HTU21D;63800;51.972;5.682;2023-04-06T06:24:16;5.93;62.31
75217;HTU21D;63800;51.972;5.682;2023-04-06T06:26:41;6.01;60.37
75217;HTU21D;63800;51.972;5.682;2023-04-06T06:29:08;5.97;60.62
75217;HTU21D;63800;51.972;5.682;2023-04-06T06:31:33;6.08;60.75
75217;HTU21D;63800;51.972;5.682;2023-04-06T06:34:00;6.20;60.22
75217;HTU21D;63800;51.972;5.682;2023-04-06T06:36:27;6.12;60.30
75217;HTU21D;63800;51.972;5.682;2023-04-06T06:38:52;6.09;61.19
75217;HTU21D;63800;51.972;5.682;2023-04-06T06:41:18;6.09;60.82
75217;HTU21D;63800;51.972;5.682;2023-04-06T06:43:44;6.04;60.96
75217;HTU21D;63800;51.972;5.682;2023-04-06T06:46:09;5.96;61.74
75217;HTU21D;63800;51.972;5.682;2023-04-06T06:48:35;6.16;61.95
75217;HTU21D;63800;51.972;5.682;2023-04-06T06:51:01;6.25;62.38
75217;HTU21D;63800;51.972;5.682;2023-04-06T06:53:26;6.13;62.22
75217;HTU21D;63800;51.972;5.682;2023-04-06T06:55:52;6.42;61.53
75217;HTU21D;63800;51.972;5.682;2023-04-06T06:58:18;6.42;62.56
75217;HTU21D;63800;51.972;5.682;2023-04-06T07:00:44;6.48;62.30
75217;HTU21D;63800;51.972;5.682;2023-04-06T07:03:09;6.34;62.44
75217;HTU21D;63800;51.972;5.682;2023-04-06T07:05:35;6.22;62.57
75217;HTU21D;63800;51.972;5.682;2023-04-06T07:08:00;6.48;62.39
75217;HTU21D;63800;51.972;5.682;2023-04-06T07:10:26;6.52;61.78
75217;HTU21D;63800;51.972;5.682;2023-04-06T07:12:52;6.56;62.76
75217;HTU21D;63800;51.972;5.682;2023-04-06T07:15:17;6.85;62.56
75217;HTU21D;63800;51.972;5.682;2023-04-06T07:17:43;6.78;62.65
75217;HTU21D;63800;51.972;5.682;2023-04-06T07:20:12;6.95;63.05
75217;HTU21D;63800;51.972;5.682;2023-04-06T07:22:38;7.00;62.28
75217;HTU21D;63800;51.972;5.682;2023-04-06T07:25:05;6.96;62.59
75217;HTU21D;63800;51.972;5.682;2023-04-06T07:27:30;7.15;62.44
75217;HTU21D;63800;51.972;5.682;2023-04-06T07:29:56;7.17;64.04
75217;HTU21D;63800;51.972;5.682;2023-04-06T07:32:21;7.19;63.07
75217;HTU21D;63800;51.972;5.682;2023-04-06T07:34:47;7.10;62.94
75217;HTU21D;63800;51.972;5.682;2023-04-06T07:37:13;6.95;64.64
75217;HTU21D;63800;51.972;5.682;2023-04-06T07:39:38;7.20;62.81
75217;HTU21D;63800;51.972;5.682;2023-04-06T07:42:04;7.19;62.35
75217;HTU21D;63800;51.972;5.682;2023-04-06T07:44:29;7.25;62.32
75217;HTU21D;63800;51.972;5.682;2023-04-06T07:46:55;7.03;61.51
75217;HTU21D;63800;51.972;5.682;2023-04-06T07:49:21;7.19;61.73
75217;HTU21D;63800;51.972;5.682;2023-04-06T07:51:48;7.32;60.39
75217;HTU21D;63800;51.972;5.682;2023-04-06T07:54:14;7.31;60.80
75217;HTU21D;63800;51.972;5.682;2023-04-06T07:56:39;7.31;59.92
75217;HTU21D;63800;51.972;5.682;2023-04-06T07:59:05;7.35;59.35
75217;HTU21D;63800;51.972;5.682;2023-04-06T08:01:30;7.07;60.23
75217;HTU21D;63800;51.972;5.682;2023-04-06T08:03:57;7.14;60.93
75217;HTU21D;63800;51.972;5.682;2023-04-06T08:06:23;6.89;61.71
75217;HTU21D;63800;51.972;5.682;2023-04-06T08:08:48;6.86;61.84
75217;HTU21D;63800;51.972;5.682;2023-04-06T08:11:14;6.99;60.65
75217;HTU21D;63800;51.972;5.682;2023-04-06T08:13:39;6.85;62.06
75217;HTU21D;63800;51.972;5.682;2023-04-06T08:16:05;7.19;61.25
75217;HTU21D;63800;51.972;5.682;2023-04-06T08:18:30;6.89;61.29
75217;HTU21D;63800;51.972;5.682;2023-04-06T08:20:56;7.29;61.66
75217;HTU21D;63800;51.972;5.682;2023-04-06T08:23:22;7.47;61.18
75217;HTU21D;63800;51.972;5.682;2023-04-06T08:25:47;7.40;60.53
75217;HTU21D;63800;51.972;5.682;2023-04-06T08:28:13;7.53;61.89
75217;HTU21D;63800;51.972;5.682;2023-04-06T08:30:44;7.19;61.21
75217;HTU21D;63800;51.972;5.682;2023-04-06T08:33:10;7.42;61.31
75217;HTU21D;63800;51.972;5.682;2023-04-06T08:35:35;7.52;60.73
75217;HTU21D;63800;51.972;5.682;2023-04-06T08:38:01;7.41;60.41
75217;HTU21D;63800;51.972;5.682;2023-04-06T08:40:27;7.78;61.10
75217;HTU21D;63800;51.972;5.682;2023-04-06T08:42:55;7.81;61.92
75217;HTU21D;63800;51.972;5.682;2023-04-06T08:45:21;8.07;60.04
75217;HTU21D;63800;51.972;5.682;2023-04-06T08:47:51;8.05;60.47
75217;HTU21D;63800;51.972;5.682;2023-04-06T08:50:18;8.44;58.96
75217;HTU21D;63800;51.972;5.682;2023-04-06T08:52:46;8.35;59.06
75217;HTU21D;63800;51.972;5.682;2023-04-06T08:55:12;8.47;58.65
75217;HTU21D;63800;51.972;5.682;2023-04-06T08:57:38;8.13;59.00
75217;HTU21D;63800;51.972;5.682;2023-04-06T09:00:05;7.56;61.21
75217;HTU21D;63800;51.972;5.682;2023-04-06T09:02:31;7.92;61.31
75217;HTU21D;63800;51.972;5.682;2023-04-06T09:04:58;8.02;61.47
75217;HTU21D;63800;51.972;5.682;2023-04-06T09:07:24;7.97;60.96
75217;HTU21D;63800;51.972;5.682;2023-04-06T09:09:50;8.35;60.15
75217;HTU21D;63800;51.972;5.682;2023-04-06T09:12:30;7.98;61.18
75217;HTU21D;63800;51.972;5.682;2023-04-06T09:14:57;8.14;61.94
75217;HTU21D;63800;51.972;5.682;2023-04-06T09:17:24;8.55;59.75
75217;HTU21D;63800;51.972;5.682;2023-04-06T09:19:50;8.49;60.15
75217;HTU21D;63800;51.972;5.682;2023-04-06T09:22:16;8.67;60.25
75217;HTU21D;63800;51.972;5.682;2023-04-06T09:24:46;8.88;59.43
75217;HTU21D;63800;51.972;5.682;2023-04-06T09:27:13;8.43;59.95
75217;HTU21D;63800;51.972;5.682;2023-04-06T09:29:40;8.47;60.64
75217;HTU21D;63800;51.972;5.682;2023-04-06T09:32:07;8.30;61.54
75217;HTU21D;63800;51.972;5.682;2023-04-06T09:34:42;8.05;60.59
75217;HTU21D;63800;51.972;5.682;2023-04-06T09:39:39;8.50;60.00
75217;HTU21D;63800;51.972;5.682;2023-04-06T09:42:05;8.49;60.36
75217;HTU21D;63800;51.972;5.682;2023-04-06T09:44:31;8.26;60.28
75217;HTU21D;63800;51.972;5.682;2023-04-06T09:46:56;8.44;60.60
75217;HTU21D;63800;51.972;5.682;2023-04-06T09:49:22;8.76;60.08
75217;HTU21D;63800;51.972;5.682;2023-04-06T09:51:56;8.43;61.34
75217;HTU21D;63800;51.972;5.682;2023-04-06T09:54:27;8.58;60.73
75217;HTU21D;63800;51.972;5.682;2023-04-06T10:01:58;8.73;60.56
75217;HTU21D;63800;51.972;5.682;2023-04-06T10:06:52;8.44;61.46
75217;HTU21D;63800;51.972;5.682;2023-04-06T10:09:18;8.65;61.37
75217;HTU21D;63800;51.972;5.682;2023-04-06T10:11:44;8.79;61.44
75217;HTU21D;63800;51.972;5.682;2023-04-06T10:14:10;8.96;60.87
75217;HTU21D;63800;51.972;5.682;2023-04-06T10:16:37;9.26;59.79
75217;HTU21D;63800;51.972;5.682;2023-04-06T10:19:09;9.00;60.91
75217;HTU21D;63800;51.972;5.682;2023-04-06T10:21:36;8.89;60.83
75217;HTU21D;63800;51.972;5.682;2023-04-06T10:24:07;8.97;60.74
75217;HTU21D;63800;51.972;5.682;2023-04-06T10:26:35;9.09;61.01
75217;HTU21D;63800;51.972;5.682;2023-04-06T10:29:03;9.49;60.23
75217;HTU21D;63800;51.972;5.682;2023-04-06T10:31:29;9.63;60.02
75217;HTU21D;63800;51.972;5.682;2023-04-06T10:33:59;9.31;61.13
75217;HTU21D;63800;51.972;5.682;2023-04-06T10:36:31;9.61;60.96
75217;HTU21D;63800;51.972;5.682;2023-04-06T10:39:06;9.92;60.68
75217;HTU21D;63800;51.972;5.682;2023-04-06T10:41:33;9.62;60.53
75217;HTU21D;63800;51.972;5.682;2023-04-06T10:43:59;9.83;60.31
75217;HTU21D;63800;51.972;5.682;2023-04-06T10:46:30;9.84;61.02
75217;HTU21D;63800;51.972;5.682;2023-04-06T10:48:56;9.95;60.89
75217;HTU21D;63800;51.972;5.682;2023-04-06T10:51:27;9.79;62.21
75217;HTU21D;63800;51.972;5.682;2023-04-06T10:53:53;9.70;63.03
75217;HTU21D;63800;51.972;5.682;2023-04-06T10:56:22;9.62;64.33
75217;HTU21D;63800;51.972;5.682;2023-04-06T10:58:53;9.30;67.21
75217;HTU21D;63800;51.972;5.682;2023-04-06T11:01:22;9.15;69.29
75217;HTU21D;63800;51.972;5.682;2023-04-06T11:03:49;9.23;70.66
75217;HTU21D;63800;51.972;5.682;2023-04-06T11:06:26;9.27;70.69
75217;HTU21D;63800;51.972;5.682;2023-04-06T11:08:52;9.08;73.55
75217;HTU21D;63800;51.972;5.682;2023-04-06T11:11:20;9.26;74.43
75217;HTU21D;63800;51.972;5.682;2023-04-06T11:13:54;9.06;75.57
75217;HTU21D;63800;51.972;5.682;2023-04-06T11:16:21;9.10;80.30
75217;HTU21D;63800;51.972;5.682;2023-04-06T11:18:58;9.16;78.47
75217;HTU21D;63800;51.972;5.682;2023-04-06T11:21:44;8.92;79.10
75217;HTU21D;63800;51.972;5.682;2023-04-06T11:24:24;8.73;78.30
75217;HTU21D;63800;51.972;5.682;2023-04-06T11:26:57;8.76;80.65
75217;HTU21D;63800;51.972;5.682;2023-04-06T11:29:28;8.74;80.21
75217;HTU21D;63800;51.972;5.682;2023-04-06T11:32:01;8.71;81.50
75217;HTU21D;63800;51.972;5.682;2023-04-06T11:34:28;8.63;81.81
75217;HTU21D;63800;51.972;5.682;2023-04-06T11:36:57;8.73;81.48
75217;HTU21D;63800;51.972;5.682;2023-04-06T11:39:24;8.59;79.19
75217;HTU21D;63800;51.972;5.682;2023-04-06T11:41:51;8.41;80.79
75217;HTU21D;63800;51.972;5.682;2023-04-06T11:44:34;8.39;79.17
75217;HTU21D;63800;51.972;5.682;2023-04-06T11:47:04;8.60;81.03
75217;HTU21D;63800;51.972;5.682;2023-04-06T11:49:31;8.66;81.93
75217;HTU21D;63800;51.972;5.682;2023-04-06T11:51:58;8.43;80.91
75217;HTU21D;63800;51.972;5.682;2023-04-06T11:54:34;8.38;85.31
75217;HTU21D;63800;51.972;5.682;2023-04-06T11:57:00;8.31;82.94
75217;HTU21D;63800;51.972;5.682;2023-04-06T11:59:26;8.28;87.68
75217;HTU21D;63800;51.972;5.682;2023-04-06T12:01:52;8.15;87.28
75217;HTU21D;63800;51.972;5.682;2023-04-06T12:04:19;8.41;88.18
75217;HTU21D;63800;51.972;5.682;2023-04-06T12:06:44;8.31;85.70
75217;HTU21D;63800;51.972;5.682;2023-04-06T12:09:10;8.00;84.32
75217;HTU21D;63800;51.972;5.682;2023-04-06T12:11:35;7.99;84.57
75217;HTU21D;63800;51.972;5.682;2023-04-06T12:14:01;7.94;85.26
75217;HTU21D;63800;51.972;5.682;2023-04-06T12:16:33;7.63;83.18
75217;HTU21D;63800;51.972;5.682;2023-04-06T12:18:58;7.91;86.73
75217;HTU21D;63800;51.972;5.682;2023-04-06T12:21:26;7.87;85.74
75217;HTU21D;63800;51.972;5.682;2023-04-06T12:23:52;7.91;86.64
75217;HTU21D;63800;51.972;5.682;2023-04-06T12:26:17;7.99;88.05
75217;HTU21D;63800;51.972;5.682;2023-04-06T12:28:42;8.12;89.47
75217;HTU21D;63800;51.972;5.682;2023-04-06T12:31:15;8.01;89.16
75217;HTU21D;63800;51.972;5.682;2023-04-06T12:33:40;8.07;87.73
75217;HTU21D;63800;51.972;5.682;2023-04-06T12:36:12;8.21;88.60
75217;HTU21D;63800;51.972;5.682;2023-04-06T12:38:38;8.11;89.77
75217;HTU21D;63800;51.972;5.682;2023-04-06T12:41:05;8.18;91.10
75217;HTU21D;63800;51.972;5.682;2023-04-06T12:43:30;7.98;93.27
75217;HTU21D;63800;51.972;5.682;2023-04-06T12:45:56;8.12;90.32
75217;HTU21D;63800;51.972;5.682;2023-04-06T12:48:21;7.57;90.17
75217;HTU21D;63800;51.972;5.682;2023-04-06T12:50:55;7.86;91.19
75217;HTU21D;63800;51.972;5.682;2023-04-06T12:53:20;8.03;94.23
75217;HTU21D;63800;51.972;5.682;2023-04-06T12:55:46;7.86;91.05
75217;HTU21D;63800;51.972;5.682;2023-04-06T12:58:11;8.16;93.35
75217;HTU21D;63800;51.972;5.682;2023-04-06T13:00:37;7.96;94.86
75217;HTU21D;63800;51.972;5.682;2023-04-06T13:03:02;8.17;92.53
75217;HTU21D;63800;51.972;5.682;2023-04-06T13:05:28;7.91;92.63
75217;HTU21D;63800;51.972;5.682;2023-04-06T13:07:53;7.72;90.91
75217;HTU21D;63800;51.972;5.682;2023-04-06T13:10:18;7.96;93.21
75217;HTU21D;63800;51.972;5.682;2023-04-06T13:12:45;8.18;93.97
75217;HTU21D;63800;51.972;5.682;2023-04-06T13:15:11;8.20;91.86
75217;HTU21D;63800;51.972;5.682;2023-04-06T13:17:36;8.35;91.21
75217;HTU21D;63800;51.972;5.682;2023-04-06T13:20:02;8.29;93.09
75217;HTU21D;63800;51.972;5.682;2023-04-06T13:22:28;7.90;94.67
75217;HTU21D;63800;51.972;5.682;2023-04-06T13:24:54;8.00;92.35
75217;HTU21D;63800;51.972;5.682;2023-04-06T13:27:20;8.02;92.71
75217;HTU21D;63800;51.972;5.682;2023-04-06T13:29:45;7.89;92.72
75217;HTU21D;63800;51.972;5.682;2023-04-06T13:32:11;7.70;94.55
75217;HTU21D;63800;51.972;5.682;2023-04-06T13:34:36;7.82;93.21
75217;HTU21D;63800;51.972;5.682;2023-04-06T13:37:02;8.15;92.59
75217;HTU21D;63800;51.972;5.682;2023-04-06T13:39:27;7.69;91.52
75217;HTU21D;63800;51.972;5.682;2023-04-06T13:41:56;8.00;95.06
75217;HTU21D;63800;51.972;5.682;2023-04-06T13:44:21;8.17;94.38
75217;HTU21D;63800;51.972;5.682;2023-04-06T13:46:47;8.03;95.26
75217;HTU21D;63800;51.972;5.682;2023-04-06T13:49:13;7.74;95.98
75217;HTU21D;63800;51.972;5.682;2023-04-06T13:51:39;8.05;93.33
75217;HTU21D;63800;51.972;5.682;2023-04-06T13:54:04;8.02;95.61
75217;HTU21D;63800;51.972;5.682;2023-04-06T13:56:30;8.07;95.29
75217;HTU21D;63800;51.972;5.682;2023-04-06T13:58:56;8.16;93.65
75217;HTU21D;63800;51.972;5.682;2023-04-06T14:01:21;8.39;93.29
75217;HTU21D;63800;51.972;5.682;2023-04-06T14:03:48;7.94;96.80
75217;HTU21D;63800;51.972;5.682;2023-04-06T14:06:15;7.94;97.94
75217;HTU21D;63800;51.972;5.682;2023-04-06T14:08:40;8.20;95.39
75217;HTU21D;63800;51.972;5.682;2023-04-06T14:11:10;8.24;95.58
75217;HTU21D;63800;51.972;5.682;2023-04-06T14:13:37;8.13;97.61
75217;HTU21D;63800;51.972;5.682;2023-04-06T14:16:03;7.91;98.45
75217;HTU21D;63800;51.972;5.682;2023-04-06T14:18:28;8.06;99.77
75217;HTU21D;63800;51.972;5.682;2023-04-06T14:20:56;7.73;99.18
75217;HTU21D;63800;51.972;5.682;2023-04-06T14:23:22;8.16;96.97
75217;HTU21D;63800;51.972;5.682;2023-04-06T14:25:48;8.28;96.46
75217;HTU21D;63800;51.972;5.682;2023-04-06T14:28:14;8.19;98.02
75217;HTU21D;63800;51.972;5.682;2023-04-06T14:30:39;8.08;98.55
75217;HTU21D;63800;51.972;5.682;2023-04-06T14:33:05;8.09;97.57
75217;HTU21D;63800;51.972;5.682;2023-04-06T14:35:30;7.92;99.29
75217;HTU21D;63800;51.972;5.682;2023-04-06T14:37:57;8.01;98.94
75217;HTU21D;63800;51.972;5.682;2023-04-06T14:40:23;8.19;98.84
75217;HTU21D;63800;51.972;5.682;2023-04-06T14:42:49;8.19;98.26
75217;HTU21D;63800;51.972;5.682;2023-04-06T14:45:16;8.07;99.48
75217;HTU21D;63800;51.972;5.682;2023-04-06T14:47:43;8.24;97.26
75217;HTU21D;63800;51.972;5.682;2023-04-06T14:50:09;8.14;98.45
75217;HTU21D;63800;51.972;5.682;2023-04-06T14:52:34;8.08;100.17
75217;HTU21D;63800;51.972;5.682;2023-04-06T14:55:00;8.16;100.16
75217;HTU21D;63800;51.972;5.682;2023-04-06T14:57:25;8.27;98.95
75217;HTU21D;63800;51.972;5.682;2023-04-06T14:59:53;8.09;100.05
75217;HTU21D;63800;51.972;5.682;2023-04-06T15:02:19;7.85;103.44
75217;HTU21D;63800;51.972;5.682;2023-04-06T15:04:44;7.99;103.64
75217;HTU21D;63800;51.972;5.682;2023-04-06T15:07:10;8.08;102.07
75217;HTU21D;63800;51.972;5.682;2023-04-06T15:09:36;7.77;103.50
75217;HTU21D;63800;51.972;5.682;2023-04-06T15:12:01;8.04;102.63
75217;HTU21D;63800;51.972;5.682;2023-04-06T15:14:27;8.11;102.55
75217;HTU21D;63800;51.972;5.682;2023-04-06T15:16:52;8.24;101.60
75217;HTU21D;63800;51.972;5.682;2023-04-06T15:19:18;8.19;101.56
75217;HTU21D;63800;51.972;5.682;2023-04-06T15:21:43;7.86;104.90
75217;HTU21D;63800;51.972;5.682;2023-04-06T15:24:09;8.08;103.22
75217;HTU21D;63800;51.972;5.682;2023-04-06T15:26:36;8.13;102.83
75217;HTU21D;63800;51.972;5.682;2023-04-06T15:29:02;7.93;106.13
75217;HTU21D;63800;51.972;5.682;2023-04-06T15:31:28;7.82;104.53
75217;HTU21D;63800;51.972;5.682;2023-04-06T15:33:54;8.01;105.55